Time;durP1;ratioP1;P1;durP2;ratioP2;P2;SDS_P1;SDS_P2;PMS_P1;PMS_P2;Temp;Humidity;BMP_temperature;BMP_pressure;BME280_temperature;BME280_humidity;BME280_pressure;Samples;Min_cycle;Max_cycle;Signal;HPM_P1;HPM_P2
2022/09/05 00:09:18;;;;;;;1.80;1.00;;;;;;;12.41;57.23;100502.82;447525;1271;144357;-59
2022/09/05 00:19:36;;;;;;;2.90;2.10;;;;;;;12.35;56.84;100508.11;447528;1271;143026;-59
2022/09/05 00:30:12;;;;;;;1.30;0.70;;;;;;;12.30;56.55;100503.83;447564;1271;197425;-59
2022/09/05 00:40:42;;;;;;;1.10;1.00;;;;;;;12.17;56.54;100506.28;447504;1271;143708;-59
2022/09/05 00:51:20;;;;;;;1.60;1.10;;;;;;;11.98;56.68;100508.55;446822;1271;143582;-58
2022/09/05 01:01:48;;;;;;;1.70;1.10;;;;;;;11.80;56.93;100506.86;447271;1269;142734;-59
2022/09/05 01:12:06;;;;;;;2.30;1.50;;;;;;;11.66;56.96;100508.52;447592;1270;145242;-59
2022/09/05 01:22:35;;;;;;;2.70;1.10;;;;;;;11.53;56.89;100506.73;447597;1270;142228;-59
2022/09/05 01:32:53;;;;;;;2.60;0.90;;;;;;;11.37;57.01;100517.73;446961;1271;143938;-59
2022/09/05 01:43:24;;;;;;;0.80;0.80;;;;;;;11.23;57.18;100529.52;430883;1270;142404;-58
2022/09/05 01:53:42;;;;;;;1.80;0.90;;;;;;;11.04;57.39;100536.77;429945;1271;142394;-60
2022/09/05 02:03:53;;;;;;;1.70;0.90;;;;;;;10.90;57.64;100539.06;430703;1271;142094;-58
2022/09/05 02:14:07;;;;;;;0.90;0.50;;;;;;;10.76;57.80;100534.69;430869;1271;144005;-57
2022/09/05 02:24:21;;;;;;;1.40;0.70;;;;;;;10.68;57.97;100541.16;431093;1271;145633;-59
2022/09/05 02:34:37;;;;;;;1.10;0.70;;;;;;;10.66;57.98;100544.25;431626;1271;143344;-59
2022/09/05 02:45:04;;;;;;;1.90;0.50;;;;;;;10.64;57.84;100545.25;431183;1271;141823;-58
2022/09/05 02:55:45;;;;;;;1.20;0.90;;;;;;;10.60;57.68;100534.92;430356;1270;143500;-58
2022/09/05 03:06:20;;;;;;;3.20;0.70;;;;;;;10.62;57.33;100531.51;430739;1271;183875;-60
2022/09/05 03:17:05;;;;;;;0.50;0.40;;;;;;;10.61;56.95;100530.31;430333;1271;142988;-59
2022/09/05 03:38:09;;;;;;;0.70;0.70;;;;;;;10.62;56.41;100542.16;421285;1300;600396;-59
2022/09/05 03:48:36;;;;;;;0.80;0.60;;;;;;;10.59;56.39;100543.19;428319;1281;1686893;-58
2022/09/05 03:59:08;;;;;;;2.00;0.70;;;;;;;10.59;56.34;100556.82;427771;1281;145837;-57
2022/09/05 04:09:20;;;;;;;1.00;0.40;;;;;;;10.59;56.23;100562.64;428576;1281;140806;-60
2022/09/05 04:19:52;;;;;;;2.70;0.80;;;;;;;10.57;56.38;100568.66;427589;1281;140403;-58
2022/09/05 04:30:03;;;;;;;1.10;0.60;;;;;;;10.68;56.30;100577.95;428972;1281;145866;-61
2022/09/05 04:40:45;;;;;;;2.60;0.60;;;;;;;10.82;56.22;100584.26;428020;1281;140738;-59
2022/09/05 04:51:07;;;;;;;2.10;0.60;;;;;;;10.99;55.99;100592.04;427856;1281;141528;-59
2022/09/05 05:01:23;;;;;;;4.90;1.40;;;;;;;11.20;55.74;100607.98;427847;1281;142671;-60
2022/09/05 05:11:55;;;;;;;4.30;1.20;;;;;;;11.51;55.28;100608.91;428675;1277;141086;-59
2022/09/05 05:22:22;;;;;;;1.20;0.70;;;;;;;13.42;53.99;100617.22;430325;1277;145909;-59
2022/09/05 05:32:33;;;;;;;1.40;0.90;;;;;;;20.58;46.29;100609.14;428750;1277;141384;-58
2022/09/05 05:42:51;;;;;;;0.70;0.70;;;;;;;26.23;38.99;100597.79;428826;1281;141230;-59
2022/09/05 05:53:26;;;;;;;2.40;0.70;;;;;;;30.01;34.22;100599.19;430837;1280;142462;-58
2022/09/05 06:04:20;;;;;;;2.60;1.70;;;;;;;32.63;29.26;100606.27;437306;1278;140627;-59
2022/09/05 06:14:59;;;;;;;1.10;0.60;;;;;;;33.84;26.07;100611.23;428426;1280;141331;-60
2022/09/05 06:25:51;;;;;;;3.40;1.70;;;;;;;35.23;24.26;100619.91;428507;1280;140881;-59
2022/09/05 06:36:06;;;;;;;2.70;0.50;;;;;;;35.85;22.49;100614.21;428656;1278;141916;-59
2022/09/05 06:46:30;;;;;;;2.00;0.70;;;;;;;37.47;21.24;100615.15;431299;1273;141199;-59
2022/09/05 06:57:13;;;;;;;1.10;0.90;;;;;;;39.16;19.67;100620.80;430279;1274;141370;-60
2022/09/05 07:07:26;;;;;;;2.20;1.00;;;;;;;39.70;18.49;100633.33;430494;1274;141997;-59
2022/09/05 07:17:44;;;;;;;3.70;1.00;;;;;;;39.59;18.11;100633.10;430135;1273;186337;-59
2022/09/05 07:28:12;;;;;;;1.80;0.90;;;;;;;41.58;17.49;100628.85;430971;1273;142634;-56
2022/09/05 07:38:37;;;;;;;3.70;0.60;;;;;;;43.24;16.03;100632.09;430625;1274;145096;-59
2022/09/05 07:49:04;;;;;;;1.40;1.00;;;;;;;43.47;14.97;100640.15;430770;1274;142175;-57
2022/09/05 07:59:13;;;;;;;1.40;1.10;;;;;;;42.70;14.75;100649.36;429922;1274;141262;-59
2022/09/05 08:09:22;;;;;;;2.00;1.20;;;;;;;43.41;14.49;100650.45;430764;1274;141967;-60
2022/09/05 08:20:02;;;;;;;2.00;1.70;;;;;;;44.41;14.05;100658.11;430446;1273;143022;-59
2022/09/05 08:30:14;;;;;;;1.20;1.10;;;;;;;44.41;13.50;100661.58;430271;1274;141427;-59
2022/09/05 08:40:36;;;;;;;3.10;0.50;;;;;;;41.72;13.77;100656.43;429786;1273;141892;-59
2022/09/05 08:51:03;;;;;;;1.00;0.40;;;;;;;31.57;17.90;100646.76;429427;1274;141500;-59
2022/09/05 09:01:17;;;;;;;2.90;0.50;;;;;;;26.70;21.94;100646.55;429764;1273;142393;-57
2022/09/05 09:11:33;;;;;;;1.10;0.40;;;;;;;24.81;24.13;100639.45;429954;1274;142181;-59
2022/09/05 09:21:51;;;;;;;3.10;0.80;;;;;;;23.68;25.41;100638.83;430566;1273;141735;-60
2022/09/05 09:32:06;;;;;;;0.40;0.30;;;;;;;22.24;26.75;100636.77;430178;1273;141616;-59
2022/09/05 09:42:32;;;;;;;0.90;0.40;;;;;;;21.80;27.83;100628.33;430085;1273;141381;-58
2022/09/05 09:53:05;;;;;;;2.90;0.50;;;;;;;21.25;28.41;100623.05;430721;1273;141672;-59
2022/09/05 10:03:47;;;;;;;0.90;0.70;;;;;;;20.81;28.88;100620.11;430491;1274;144260;-59
2022/09/05 10:14:44;;;;;;;0.80;0.40;;;;;;;20.54;29.15;100616.99;429596;1274;141705;-60
2022/09/05 10:25:18;;;;;;;1.50;0.70;;;;;;;20.18;29.91;100614.53;430542;1271;142593;-60
2022/09/05 10:35:30;;;;;;;0.90;0.30;;;;;;;19.76;30.83;100606.25;430887;1271;141885;-59
2022/09/05 10:45:48;;;;;;;2.30;0.30;;;;;;;19.43;31.39;100602.58;432807;1271;139841;-61
2022/09/05 10:56:11;;;;;;;0.60;0.30;;;;;;;19.34;32.24;100595.24;430211;1271;141859;-60
2022/09/05 11:06:21;;;;;;;0.80;0.30;;;;;;;19.23;32.32;100590.66;431439;1271;140900;-60
2022/09/05 11:16:38;;;;;;;1.50;0.30;;;;;;;19.12;32.52;100583.92;440579;1271;141279;-60
2022/09/05 11:26:49;;;;;;;0.50;0.40;;;;;;;19.10;32.72;100580.73;445080;1272;141148;-60
2022/09/05 11:37:31;;;;;;;0.10;0.10;;;;;;;19.08;32.83;100570.39;447338;1272;141633;-61
2022/09/05 11:48:19;;;;;;;1.10;0.40;;;;;;;19.22;32.97;100559.89;430750;1273;198127;-57
2022/09/05 11:58:47;;;;;;;1.60;0.20;;;;;;;19.29;32.62;100559.08;431953;1271;140839;-59
2022/09/05 12:09:01;;;;;;;1.80;0.30;;;;;;;19.20;32.36;100557.02;447580;1271;141598;-60
2022/09/05 12:19:25;;;;;;;0.20;0.20;;;;;;;19.19;32.03;100559.77;445718;1271;141892;-60
2022/09/05 12:29:36;;;;;;;0.30;0.20;;;;;;;19.14;31.99;100554.66;433509;1271;140951;-60
2022/09/05 12:39:58;;;;;;;0.20;0.20;;;;;;;19.12;31.63;100542.10;430835;1273;142870;-60
2022/09/05 12:50:32;;;;;;;1.00;0.20;;;;;;;19.14;31.96;100532.83;430392;1271;140922;-58
2022/09/05 13:00:45;;;;;;;2.30;0.50;;;;;;;19.15;32.08;100523.16;431319;1271;141177;-59
2022/09/05 13:11:12;;;;;;;1.60;0.50;;;;;;;19.17;31.95;100524.11;430856;1271;140863;-60
2022/09/05 13:21:43;;;;;;;0.70;0.20;;;;;;;19.15;31.95;100521.73;431873;1271;140351;-60
2022/09/05 13:32:14;;;;;;;1.90;0.20;;;;;;;19.16;32.06;100517.42;433731;1271;145034;-59
2022/09/05 13:42:44;;;;;;;0.30;0.30;;;;;;;19.18;31.95;100512.78;433417;1271;141175;-59
2022/09/05 13:52:55;;;;;;;1.40;0.70;;;;;;;19.15;32.07;100512.55;431059;1271;140482;-59
2022/09/05 14:03:41;;;;;;;0.10;0.10;;;;;;;19.14;32.25;100506.44;431122;1273;210597;-59
2022/09/05 14:14:08;;;;;;;1.20;0.20;;;;;;;19.15;32.66;100497.39;431366;1271;142942;-60
2022/09/05 14:24:15;;;;;;;;;;;;;;;19.22;32.85;100493.11;431533;1271;140662;-60
2022/09/05 14:35:05;;;;;;;0.90;0.40;;;;;;;19.23;32.94;100489.48;431402;1271;126542;-60
2022/09/05 14:45:56;;;;;;;0.50;0.50;;;;;;;19.18;32.54;100491.52;429748;1273;140709;-60
2022/09/05 14:56:10;;;;;;;0.40;0.20;;;;;;;19.10;32.48;100476.21;431662;1271;141140;-60
2022/09/05 15:06:36;;;;;;;2.60;0.90;;;;;;;19.10;32.73;100471.94;432717;1272;141729;-60
2022/09/05 15:16:59;;;;;;;0.40;0.30;;;;;;;19.07;32.54;100467.22;431638;1273;140630;-60
2022/09/05 15:27:15;;;;;;;1.10;0.50;;;;;;;18.98;32.70;100460.04;431555;1273;140412;-59
2022/09/05 15:37:30;;;;;;;4.80;1.60;;;;;;;18.92;33.29;100456.61;430919;1271;142060;-59
2022/09/05 15:47:38;;;;;;;1.30;0.20;;;;;;;18.77;33.33;100451.64;429967;1271;1395180;-58
2022/09/05 15:57:45;;;;;;;;;;;;;;;18.67;33.61;100450.70;432342;1272;141010;-60
2022/09/05 16:07:56;;;;;;;1.20;0.30;;;;;;;18.54;33.75;100448.27;429788;1273;128350;-59
2022/09/05 16:18:26;;;;;;;10.20;0.70;;;;;;;18.37;34.19;100439.74;431371;1271;141405;-59
2022/09/05 16:28:56;;;;;;;2.40;1.00;;;;;;;18.19;34.86;100436.05;430534;1271;163887;-58
2022/09/05 16:39:07;;;;;;;2.30;0.20;;;;;;;18.04;35.48;100430.55;430861;1271;142024;-60
2022/09/05 16:49:18;;;;;;;2.10;0.50;;;;;;;17.75;35.57;100432.66;432617;1271;140514;-59
2022/09/05 16:59:46;;;;;;;0.60;0.40;;;;;;;17.37;36.03;100430.55;429462;1271;143957;-59
2022/09/05 17:09:52;;;;;;;2.30;0.40;;;;;;;16.97;36.76;100427.44;430624;1273;141800;-59
2022/09/05 17:20:00;;;;;;;1.30;0.40;;;;;;;16.56;37.56;100421.05;430262;1271;141880;-59
2022/09/05 17:30:13;;;;;;;5.80;0.60;;;;;;;16.18;38.19;100430.20;430124;1273;142754;-59
2022/09/05 17:41:09;;;;;;;3.30;0.40;;;;;;;15.84;38.58;100435.45;430391;1273;142716;-58
2022/09/05 17:51:36;;;;;;;2.30;0.40;;;;;;;15.55;39.17;100448.13;431852;1273;147734;-59
2022/09/05 18:02:28;;;;;;;1.60;0.60;;;;;;;15.23;39.61;100451.18;433880;1271;140444;-59
2022/09/05 18:12:38;;;;;;;1.40;0.70;;;;;;;15.00;40.28;100459.20;432027;1271;141566;-61
2022/09/05 18:23:32;;;;;;;2.00;1.10;;;;;;;14.79;40.74;100456.73;431253;1271;141571;-58
2022/09/05 18:34:36;;;;;;;1.70;1.30;;;;;;;14.62;41.42;100460.27;431816;1271;141258;-59
2022/09/05 18:44:48;;;;;;;1.20;0.90;;;;;;;14.44;42.14;100464.24;430147;1271;141184;-58
2022/09/05 18:54:58;;;;;;;5.70;0.80;;;;;;;14.31;42.65;100466.70;431538;1271;142476;-55
2022/09/05 19:05:40;;;;;;;4.00;1.30;;;;;;;14.17;43.12;100470.09;431137;1271;140638;-59
2022/09/05 19:15:53;;;;;;;1.50;1.00;;;;;;;14.06;43.60;100467.61;429971;1273;142349;-57
2022/09/05 19:26:20;;;;;;;1.90;1.00;;;;;;;13.99;44.05;100460.14;430693;1271;143428;-58
2022/09/05 19:36:30;;;;;;;1.20;1.00;;;;;;;13.86;44.21;100455.17;431603;1271;140881;-58
2022/09/05 19:46:57;;;;;;;1.00;0.70;;;;;;;13.72;44.62;100450.96;430475;1271;141596;-59
2022/09/05 19:57:24;;;;;;;1.00;0.90;;;;;;;13.56;44.80;100453.68;431612;1270;140999;-59
2022/09/05 20:07:31;;;;;;;2.40;1.30;;;;;;;13.48;45.17;100445.57;431959;1273;140540;-60
2022/09/05 20:17:41;;;;;;;1.90;0.70;;;;;;;13.35;45.52;100440.52;430174;1271;141997;-60
2022/09/05 20:27:49;;;;;;;4.50;1.10;;;;;;;13.22;45.85;100435.17;431239;1270;141468;-60
2022/09/05 20:37:57;;;;;;;7.80;2.30;;;;;;;13.07;46.20;100428.85;429853;1271;141526;-59
2022/09/05 20:48:23;;;;;;;2.80;1.70;;;;;;;12.86;46.65;100421.90;430611;1271;140793;-61
2022/09/05 20:58:54;;;;;;;2.60;1.30;;;;;;;12.79;47.10;100417.90;430221;1271;146329;-59
2022/09/05 21:09:15;;;;;;;2.40;1.00;;;;;;;12.80;47.38;100419.27;430853;1271;196788;-58
2022/09/05 21:19:32;;;;;;;2.20;0.90;;;;;;;12.79;47.35;100422.33;434869;1271;147290;-60
2022/09/05 21:29:38;;;;;;;3.00;1.10;;;;;;;12.72;47.66;100419.03;429548;1271;146213;-61
2022/09/05 21:39:50;;;;;;;4.20;1.30;;;;;;;12.54;48.05;100419.54;430876;1271;140687;-59
2022/09/05 21:50:06;;;;;;;2.80;1.20;;;;;;;12.34;48.39;100415.63;430968;1271;141404;-58
2022/09/05 22:00:19;;;;;;;2.50;1.90;;;;;;;12.14;49.32;100419.58;430992;1271;140110;-58
2022/09/05 22:10:25;;;;;;;2.60;1.30;;;;;;;11.84;50.08;100418.23;430988;1271;141106;-60
2022/09/05 22:20:52;;;;;;;2.30;1.50;;;;;;;11.83;50.67;100414.29;429977;1274;141914;-59
2022/09/05 22:31:19;;;;;;;2.60;1.60;;;;;;;11.76;51.14;100407.95;430242;1271;142769;-59
2022/09/05 22:41:25;;;;;;;4.30;1.70;;;;;;;11.72;51.59;100406.11;429282;1271;142410;-59
2022/09/05 22:51:35;;;;;;;3.00;1.70;;;;;;;11.70;52.08;100407.80;431070;1271;141157;-59
2022/09/05 23:01:42;;;;;;;4.30;2.50;;;;;;;11.70;52.27;100408.85;430211;1271;140707;-58
2022/09/05 23:11:48;;;;;;;2.60;1.80;;;;;;;11.62;52.46;100399.11;430175;1271;141048;-58
2022/09/05 23:21:54;;;;;;;4.50;2.20;;;;;;;11.42;53.04;100396.17;431609;1271;142721;-58
2022/09/05 23:32:00;;;;;;;5.60;2.70;;;;;;;11.26;53.46;100387.19;430425;1271;140916;-59
2022/09/05 23:42:06;;;;;;;8.30;3.60;;;;;;;11.11;53.97;100386.59;431947;1271;142724;-63
2022/09/05 23:52:12;;;;;;;5.20;2.00;;;;;;;10.95;54.53;100390.44;430856;1271;141550;-59
